• Join FlightAware (Why Join?)
  • Login
  • US Flag 
09:55AM EDT


 

Airport Tracker/Info


-or-


 

Live Flight TrackerFlight Track Log ✈ SKW6492 ✈ 27-Jun-2013 ✈ KIAH - KIAD

Flight Track Log - Related Links

Times and Time Zones

All times are in EDT time to prevent confusion due to time zone crossing. See the SKW6492 flight status page for this flight to view local times or setup timezone preferences in your user account.

Time Position Orientation Groundspeed Altitude Reporting Facility
EDT Latitude Longitude Course Direction KTS MPH feet Rate Location/Type
11:36AM 29.9594 -95.3414 130° Southeast 172 198 600  Level Houston Center
11:37AM 29.9089 -95.2728 130° Southeast 225 259 3,200 1,860 Climbing Houston Center
11:39AM 29.8606 -95.2017 128° Southeast 270 311 5,400 2,100 Climbing Houston Center
11:40AM 29.8461 -95.1167 101° East 282 325 7,700 2,340 Climbing Houston Center
11:41AM 29.8478 -95.0200 89° East 284 327 10,200 1,800 Climbing Houston Center
11:42AM 29.8506 -94.9169 88° East 300 345 11,800 1,260 Climbing Houston Center
11:43AM 29.8533 -94.8111 88° East 324 373 13,200 1,680 Climbing Houston Center
11:44AM 29.8544 -94.6778 89° East 345 397 15,300 1,620 Climbing Houston Center
11:45AM 29.8578 -94.5650 88° East 353 406 16,600 1,200 Climbing Houston Center
11:46AM 29.8697 -94.4469 83° East 369 425 17,900 1,260 Climbing Houston Center
11:47AM 29.8950 -94.3294 76° East 379 436 19,300 1,620 Climbing Houston Center
11:48AM 29.9189 -94.2108 77° East 381 438 21,300 1,980 Climbing Houston Center
11:49AM 29.9467 -94.0772 76° East 360 414 23,500 1,560 Climbing Houston Center
11:50AM 29.9697 -93.9633 77° East 365 420 24,600 960 Climbing Houston Center
11:51AM 29.9936 -93.8464 77° East 375 432 25,600 960 Climbing Houston Center
11:52AM 30.0172 -93.7250 77° East 388 447 26,600 840 Climbing Houston Center
11:53AM 30.0422 -93.6022 77° East 395 455 27,400 840 Climbing Houston Center
11:54AM 30.0722 -93.4494 77° East 411 473 28,400 840 Climbing Houston Center
11:55AM 30.0983 -93.3200 77° East 418 481 29,200 840 Climbing Houston Center
11:56AM 30.1247 -93.1889 77° East 422 486 30,200 960 Climbing Houston Center
11:57AM 30.1514 -93.0597 77° East 419 482 31,300 960 Climbing Houston Center
11:58AM 30.1822 -92.9331 74° East 415 478 32,200 900 Climbing Houston Center
11:59AM 30.2186 -92.7789 75° East 416 479 33,200 720 Climbing Houston Center
12:00PM 30.2478 -92.6506 75° East 415 478 33,800 600 Climbing Houston Center
12:01PM 30.2783 -92.5186 75° East 423 487 34,500 720 Climbing Houston Center
12:02PM 30.3106 -92.3867 74° East 426 490 35,300 720 Climbing Houston Center
12:04PM 30.3369 -92.2561 77° East 419 482 36,100 720 Climbing Houston Center
12:05PM 30.3717 -92.0997 76° East 420 483 36,900 420 Climbing Houston Center
12:06PM 30.4011 -91.9697 75° East 419 482 37,000  Climbing Houston Center
12:07PM 30.4319 -91.8344 75° East 430 495 37,000  Level Houston Center
12:08PM 30.4678 -91.6825 75° East 433 498 37,000  Level Houston Center
12:09PM 30.4931 -91.5667 76° East 431 496 37,000  Level Houston Center
12:10PM 30.5278 -91.4122 75° East 435 501 37,000  Level Houston Center
12:11PM 30.5589 -91.2753 75° East 439 505 37,000  Level Houston Center
12:12PM 30.5878 -91.1392 76° East 436 502 37,000  Level Houston Center
12:13PM 30.6169 -91.0042 76° East 434 499 37,000  Level Houston Center
12:14PM 30.6528 -90.8389 76° East 438 504 37,000  Level Houston Center
12:15PM 30.6822 -90.7031 76° East 435 501 37,000  Level Houston Center
12:16PM 30.7111 -90.5661 76° East 437 503 37,000  Level Houston Center
12:17PM 30.7403 -90.4286 76° East 437 503 37,000  Level Houston Center
12:18PM 30.7692 -90.2917 76° East 438 504 37,000  Level Houston Center
12:19PM 30.7983 -90.1533 76° East 439 505 37,000  Level Houston Center
12:20PM 30.8272 -90.0153 76° East 437 503 37,000  Level Houston Center
12:21PM 30.8625 -89.8486 76° East 439 505 37,000  Level Houston Center
12:22PM 30.8906 -89.7100 77° East 440 506 37,000  Level Houston Center
12:23PM 30.9192 -89.5708 76° East 440 506 37,000  Level Houston Center
12:24PM 30.9669 -89.4400 67° East 437 503 37,000  Level Houston Center
12:25PM 31.0214 -89.3114 64° Northeast 440 506 37,000  Level Houston Center
12:26PM 31.0744 -89.1822 64° Northeast 442 509 37,000  Level Houston Center
12:27PM 31.1272 -89.0542 64° Northeast 440 506 37,000  Level Houston Center
12:28PM 31.1850 -88.9186 63° Northeast 442 509 37,000  Level Houston Center
12:29PM 31.2378 -88.7903 64° Northeast 439 505 37,000  Level Houston Center
12:30PM 31.3019 -88.6358 64° Northeast 437 503 37,000  Level Houston Center
12:31PM 31.3553 -88.5058 64° Northeast 441 507 37,000  Level Houston Center
12:33PM 31.4075 -88.3781 64° Northeast 433 498 37,000  Level Houston Center
12:34PM 31.4608 -88.2492 64° Northeast 435 501 37,000  Level Houston Center
12:35PM 31.5128 -88.1219 64° Northeast 431 496 37,000  Level Houston Center
12:36PM 31.5633 -87.9947 65° Northeast 429 494 37,000  Level Houston Center
12:37PM 31.6139 -87.8689 65° Northeast 427 491 37,000  Level Houston Center
12:37PM 31.6547 -87.7714 64° Northeast 431 496 37,000  Level Atlanta Center
12:38PM 31.7067 -87.6442 64° Northeast 431 496 37,000  Level Atlanta Center
12:39PM 31.7581 -87.5192 64° Northeast 431 496 37,000 300 Level Atlanta Center
12:40PM 31.8075 -87.3917 65° Northeast 431 496 37,600 600 Climbing Atlanta Center
12:41PM 31.8528 -87.2661 67° East 426 490 38,200 600 Climbing Atlanta Center
12:42PM 31.9017 -87.1408 65° Northeast 421 484 38,900 360 Climbing Atlanta Center
12:43PM 31.9528 -87.0178 64° Northeast 416 479 39,000  Climbing Atlanta Center
12:44PM 31.9994 -86.8944 66° East 416 479 39,000  Level Atlanta Center
12:45PM 32.0503 -86.7686 64° Northeast 416 479 39,000  Level Atlanta Center
12:46PM 32.1008 -86.6597 61° Northeast 416 479 39,000  Level Atlanta Center
12:47PM 32.1494 -86.5311 66° East 416 479 39,000  Level Atlanta Center
12:48PM 32.1936 -86.4072 67° East 416 479 39,000  Level Atlanta Center
12:49PM 32.2417 -86.2833 65° Northeast 411 473 39,000  Level Atlanta Center
12:50PM 32.3208 -86.1747 49° Northeast 416 479 39,000  Level Atlanta Center
12:51PM 32.3939 -86.0608 53° Northeast 416 479 39,000  Level Atlanta Center
12:52PM 32.4686 -85.9542 50° Northeast 410 472 39,000  Level Atlanta Center
12:53PM 32.5456 -85.8400 51° Northeast 422 486 39,000  Level Atlanta Center
12:54PM 32.6181 -85.7306 52° Northeast 427 491 39,000  Level Atlanta Center
12:55PM 32.6903 -85.6233 51° Northeast 416 479 39,000  Level Atlanta Center
12:56PM 32.7625 -85.5161 51° Northeast 416 479 39,000  Level Atlanta Center
12:57PM 32.8200 -85.4306 51° Northeast 416 479 39,000  Level Atlanta Center
12:58PM 32.8922 -85.3228 51° Northeast 416 479 39,000  Level Atlanta Center
12:59PM 32.9642 -85.2125 52° Northeast 421 484 39,000  Level Atlanta Center
01:00PM 33.0508 -85.0872 50° Northeast 408 470 39,000  Level Atlanta Center
01:01PM 33.1228 -84.9739 53° Northeast 417 480 39,000  Level Atlanta Center
01:02PM 33.1944 -84.8631 52° Northeast 423 487 39,000  Level Atlanta Center
01:03PM 33.2683 -84.7494 52° Northeast 423 487 39,000  Level Atlanta Center
01:04PM 33.3419 -84.6356 52° Northeast 428 493 39,000  Level Atlanta Center
01:05PM 33.4156 -84.5192 53° Northeast 434 499 39,000  Level Atlanta Center
01:06PM 33.4911 -84.4050 52° Northeast 434 499 39,000  Level Atlanta Center
01:07PM 33.5622 -84.2906 53° Northeast 434 499 39,000  Level Atlanta Center
01:08PM 33.6378 -84.1736 52° Northeast 429 494 39,000  Level Atlanta Center
01:09PM 33.7108 -84.0589 53° Northeast 434 499 39,000  Level Atlanta Center
01:10PM 33.7858 -83.9414 52° Northeast 434 499 39,000  Level Atlanta Center
01:11PM 33.8589 -83.8261 53° Northeast 434 499 39,000  Level Atlanta Center
01:12PM 33.9317 -83.7108 53° Northeast 439 505 39,000  Level Atlanta Center
01:13PM 34.0042 -83.5953 53° Northeast 439 505 39,000  Level Atlanta Center
01:14PM 34.0747 -83.4819 53° Northeast 434 499 39,000  Level Atlanta Center
01:15PM 34.1492 -83.3636 53° Northeast 434 499 39,000  Level Atlanta Center
01:16PM 34.2133 -83.2625 52° Northeast 429 494 39,000  Level Atlanta Center
01:17PM 34.2856 -83.1461 53° Northeast 429 494 39,000  Level Atlanta Center
01:18PM 34.3600 -83.0297 52° Northeast 429 494 39,000  Level Atlanta Center
01:19PM 34.4256 -82.9156 55° Northeast 429 494 39,000  Level Atlanta Center
01:20PM 34.5017 -82.8011 51° Northeast 429 494 39,000  Level Atlanta Center
01:21PM 34.5714 -82.6842 54° Northeast 424 488 39,000  Level Atlanta Center
01:22PM 34.6453 -82.5717 51° Northeast 430 495 39,000  Level Atlanta Center
01:23PM 34.7169 -82.4569 53° Northeast 425 489 39,000  Level Atlanta Center
01:24PM 34.7883 -82.3367 54° Northeast 425 489 39,000  Level Atlanta Center
01:25PM 34.8597 -82.2189 54° Northeast 425 489 39,000  Level Atlanta Center
01:26PM 34.9311 -82.1031 53° Northeast 425 489 39,000  Level Atlanta Center
01:27PM 35.0000 -81.9850 55° Northeast 430 495 39,000  Level Atlanta Center
01:28PM 35.0708 -81.8614 55° Northeast 435 501 39,000  Level Atlanta Center
01:29PM 35.1414 -81.7250 58° Northeast 435 501 39,000  Level Atlanta Center
01:30PM 35.2100 -81.5958 57° Northeast 440 506 39,000  Level Atlanta Center
01:31PM 35.2742 -81.4719 58° Northeast 440 506 39,000  Level Atlanta Center
01:32PM 35.3403 -81.3425 58° Northeast 440 506 39,000 -420 Level Atlanta Center
01:33PM 35.4061 -81.2131 58° Northeast 446 513 38,200 -1,200 Descending Atlanta Center
01:34PM 35.4761 -81.0781 57° Northeast 453 521 36,700 -1,500 Descending Atlanta Center
01:35PM 35.5497 -80.9400 57° Northeast 473 544 35,200 -1,500 Descending Atlanta Center
01:36PM 35.6214 -80.8069 56° Northeast 473 544 33,700 -1,140 Descending Atlanta Center
01:37PM 35.6908 -80.6714 58° Northeast 468 539 33,000 -360 Descending Atlanta Center
01:38PM 35.7600 -80.5353 58° Northeast 468 539 33,000  Level Atlanta Center
01:39PM 35.8331 -80.3964 57° Northeast 468 539 33,000  Level Atlanta Center
01:42PM 35.9989 -80.0772 57° Northeast 465 535 33,000  Level Washington Center
01:43PM 36.0708 -79.9375 57° Northeast 465 535 33,000  Level Washington Center
01:44PM 36.1486 -79.8028 54° Northeast 470 541 33,000  Level Washington Center
01:45PM 36.2311 -79.6528 56° Northeast 480 552 33,000  Level Washington Center
01:46PM 36.3086 -79.5175 55° Northeast 480 552 33,000  Level Washington Center
01:47PM 36.3794 -79.3947 54° Northeast 475 547 33,000  Level Washington Center
01:48PM 36.4594 -79.2411 57° Northeast 475 547 33,000 -420 Level Washington Center
01:49PM 36.5339 -79.1178 53° Northeast 480 552 32,200 -2,160 Descending Washington Center
01:50PM 36.6197 -78.9614 56° Northeast 486 559 28,800 -3,180 Descending Washington Center
01:51PM 36.6903 -78.8297 56° Northeast 501 577 25,800 -1,920 Descending Washington Center
01:52PM 36.7736 -78.6750 56° Northeast 496 571 25,000 -420 Descending Washington Center
01:53PM 36.8503 -78.5353 56° Northeast 491 565 25,000  Level Washington Center
01:54PM 36.9328 -78.4008 52° Northeast 491 565 25,000  Level Washington Center
01:55PM 37.0408 -78.3189 31° Northeast 483 556 25,000  Level Washington Center
01:56PM 37.1619 -78.2292 31° Northeast 490 564 25,000  Level Washington Center
01:57PM 37.2914 -78.1294 31° Northeast 500 575 25,000  Level Washington Center
01:58PM 37.4119 -78.0392 31° Northeast 500 575 25,000 -780 Level Washington Center
01:59PM 37.5328 -77.9461 31° Northeast 505 581 23,500 -2,220 Descending Washington Center
02:00PM 37.6492 -77.8581 31° Northeast 498 573 20,500 -2,880 Descending Washington Center
02:01PM 37.7531 -77.7769 32° Northeast 473 544 17,700 -2,700 Descending Washington Center
02:02PM 37.8567 -77.6986 31° Northeast 449 517 15,200 -2,340 Descending Washington Center
02:03PM 37.9558 -77.6197 32° Northeast 434 499 13,100 -1,860 Descending Washington Center
02:04PM 38.0444 -77.5561 29° Northeast 420 483 11,500 -1,560 Descending Washington Center
02:05PM 38.1394 -77.4847 31° Northeast 407 468 10,000 -780 Descending Washington Center
02:06PM 38.2175 -77.4258 31° Northeast 366 421 10,000  Level Washington Center
02:07PM 38.3081 -77.3750 24° Northeast 322 371 10,000 -720 Level Washington Center
02:08PM 38.3917 -77.3611 North 302 348 8,600 -1,500 Descending Washington Center
02:09PM 38.4731 -77.3631 359° North 296 341 7,000 -1,560 Descending Washington Center
02:10PM 38.5500 -77.3678 357° North 283 326 5,500 -1,140 Descending Washington Center
02:11PM 38.6833 -77.3667 360° North 279 321 4,100 -600 Descending Potomac TRACON
02:12PM 38.7667 -77.3500 North 278 320 4,000 -60 Descending Potomac TRACON
02:13PM 38.8333 -77.3500 360° North 281 323 4,000  Level Potomac TRACON
02:14PM 38.9167 -77.3500 360° North 284 327 4,000  Level Potomac TRACON
02:15PM 39.0000 -77.3500 360° North 283 326 4,000 -540 Level Potomac TRACON
02:16PM 39.0667 -77.3500 360° North 259 298 3,000 -840 Descending Potomac TRACON
02:17PM 39.1167 -77.3833 333° Northwest 248 285 2,400 -540 Descending Potomac TRACON
02:18PM 39.1000 -77.4333 247° West 211 243 2,000 -240 Descending Potomac TRACON
02:19PM 39.0500 -77.4333 180° South 162 186 2,000 -360 Level Potomac TRACON
02:20PM 39.0000 -77.4333 180° South 125 144 1,300 -660 Descending Potomac TRACON
02:21PM 38.9667 -77.4333 180° South 120 138 700 -600 Descending Potomac TRACON
02:23PM 38.9474 -77.4599 191° South  Level Estimated
02:30PM 38.9474 -77.4599 191° South  Level Estimated
02:31PM 38.9474 -77.4599 191° South  Level Estimated
02:32PM 38.9474 -77.4599 191° South  Level Estimated
02:33PM 38.9474 -77.4599 191° South  Level Estimated